Time;durP1;ratioP1;P1;durP2;ratioP2;P2;SDS_P1;SDS_P2;PMS_P1;PMS_P2;Temp;Humidity;BMP_temperature;BMP_pressure;BME280_temperature;BME280_humidity;BME280_pressure;Samples;Min_cycle;Max_cycle;Signal;HPM_P1;HPM_P2
2022/12/24 00:00:58;;;;;;;1999.90;999.90;;;12.00;99.90;;;;;;5020280;28;20472;-68
2022/12/24 00:03:25;;;;;;;1999.90;999.90;;;12.10;99.90;;;;;;5027674;28;20463;-68
2022/12/24 00:05:52;;;;;;;1999.90;999.90;;;12.10;99.90;;;;;;5027986;28;20479;-67
2022/12/24 00:08:18;;;;;;;1999.90;999.90;;;12.10;99.90;;;;;;5026971;28;20938;-68
2022/12/24 00:10:49;;;;;;;1999.90;999.90;;;12.10;99.90;;;;;;5026652;28;20464;-68
2022/12/24 00:13:16;;;;;;;1999.90;999.90;;;12.10;99.90;;;;;;5026961;28;20453;-67
2022/12/24 00:15:44;;;;;;;1999.90;999.90;;;12.10;99.90;;;;;;5024553;28;20479;-67
2022/12/24 00:18:11;;;;;;;1999.90;999.90;;;12.10;99.90;;;;;;5026913;28;20488;-65
2022/12/24 00:20:38;;;;;;;1999.90;999.90;;;12.10;99.90;;;;;;5018971;28;20452;-67
2022/12/24 00:23:04;;;;;;;1999.90;999.90;;;12.00;99.90;;;;;;5018335;28;20445;-68
2022/12/24 00:25:31;;;;;;;1999.90;999.90;;;12.00;99.90;;;;;;5026527;28;20473;-67
2022/12/24 00:27:58;;;;;;;1999.90;999.90;;;12.00;99.90;;;;;;5026807;28;20456;-68
2022/12/24 00:30:25;;;;;;;1999.90;999.90;;;11.90;99.90;;;;;;5025455;28;20805;-67
2022/12/24 00:32:53;;;;;;;1999.90;999.90;;;11.90;99.90;;;;;;5025510;28;20449;-69
2022/12/24 00:35:20;;;;;;;1999.90;999.90;;;11.90;99.90;;;;;;5017615;28;20491;-67
2022/12/24 00:37:47;;;;;;;1999.90;999.90;;;11.90;99.90;;;;;;5017820;28;20449;-67
2022/12/24 00:40:14;;;;;;;1999.90;999.90;;;11.80;99.90;;;;;;5011467;28;20480;-67
2022/12/24 00:42:41;;;;;;;1999.90;999.90;;;11.70;99.90;;;;;;5010524;28;20587;-68
2022/12/24 00:45:09;;;;;;;1999.90;999.90;;;11.60;99.90;;;;;;5013283;28;20477;-67
2022/12/24 00:47:36;;;;;;;1999.90;999.90;;;11.60;99.90;;;;;;5012796;28;20445;-68
2022/12/24 00:50:04;;;;;;;1999.90;999.90;;;11.60;99.90;;;;;;5011031;28;20453;-68
2022/12/24 00:52:31;;;;;;;1999.90;999.90;;;11.70;99.90;;;;;;5019195;28;20453;-68
2022/12/24 00:54:58;;;;;;;1999.90;999.90;;;11.70;99.90;;;;;;5015349;28;20837;-67
2022/12/24 00:57:25;;;;;;;1999.90;999.90;;;11.70;99.90;;;;;;5011412;28;20449;-67
2022/12/24 00:59:51;;;;;;;1999.90;999.90;;;11.70;99.90;;;;;;5011110;28;21020;-68
2022/12/24 01:02:18;;;;;;;1999.90;999.90;;;11.70;99.90;;;;;;5015289;28;20454;-66
2022/12/24 01:07:30;;;;;;;1999.90;999.90;;;11.80;99.90;;;;;;5019932;28;20478;-67
2022/12/24 01:09:57;;;;;;;1999.90;999.90;;;11.80;99.90;;;;;;5017345;28;20464;-67
2022/12/24 01:12:24;;;;;;;1999.90;999.90;;;11.90;99.90;;;;;;5013386;28;20936;-67
2022/12/24 01:14:51;;;;;;;1999.90;999.90;;;12.00;99.90;;;;;;5021399;28;20855;-67
2022/12/24 01:17:17;;;;;;;1999.90;999.90;;;11.90;99.90;;;;;;5010277;28;20967;-67
2022/12/24 01:19:44;;;;;;;1999.90;999.90;;;11.90;99.90;;;;;;5016225;28;21092;-67
2022/12/24 01:22:11;;;;;;;1999.90;999.90;;;11.80;99.90;;;;;;5019012;28;20453;-67
2022/12/24 01:24:40;;;;;;;1999.90;999.90;;;11.70;99.90;;;;;;5012602;28;20469;-66
2022/12/24 01:27:07;;;;;;;1999.90;999.90;;;11.60;99.90;;;;;;5016500;28;20461;-67
2022/12/24 01:29:34;;;;;;;1999.90;999.90;;;11.40;99.90;;;;;;5015279;28;20446;-67
2022/12/24 01:32:01;;;;;;;1999.90;999.90;;;11.30;99.90;;;;;;5016274;28;20440;-67
2022/12/24 01:34:27;;;;;;;1999.90;999.90;;;11.20;99.90;;;;;;5025213;28;20476;-66
2022/12/24 01:36:54;;;;;;;1999.90;999.90;;;11.10;99.90;;;;;;5022397;28;20524;-66
2022/12/24 01:39:21;;;;;;;1999.90;999.90;;;11.00;99.90;;;;;;5015567;28;20485;-66
2022/12/24 01:44:35;;;;;;;1999.90;999.90;;;10.90;99.90;;;;;;5015236;28;20997;-66
2022/12/24 01:47:09;;;;;;;1999.90;999.90;;;10.80;99.90;;;;;;5005030;28;20454;-67
2022/12/24 01:49:37;;;;;;;1999.90;999.90;;;10.70;99.90;;;;;;5014398;28;20449;-67
2022/12/24 01:52:07;;;;;;;1999.90;999.90;;;10.60;99.90;;;;;;5021632;28;20460;-67
2022/12/24 01:54:36;;;;;;;1999.90;999.90;;;10.60;99.90;;;;;;5018220;28;20469;-67
2022/12/24 01:57:09;;;;;;;1999.90;999.90;;;10.60;99.90;;;;;;5015389;28;20450;-67
2022/12/24 01:59:38;;;;;;;1999.90;999.90;;;10.60;99.90;;;;;;5021760;28;21033;-67
2022/12/24 02:02:05;;;;;;;1999.90;999.90;;;10.60;99.90;;;;;;5024082;28;20461;-67
2022/12/24 02:04:36;;;;;;;1999.90;999.90;;;10.60;99.90;;;;;;5010388;28;20505;-67
2022/12/24 02:07:03;;;;;;;1999.90;999.90;;;10.60;99.90;;;;;;5012318;28;20450;-67
2022/12/24 02:09:30;;;;;;;1999.90;999.90;;;10.50;99.90;;;;;;5013835;28;20973;-67
2022/12/24 02:11:57;;;;;;;1999.90;999.90;;;10.60;99.90;;;;;;5012838;28;20457;-67
2022/12/24 02:14:26;;;;;;;1999.90;999.90;;;10.60;99.90;;;;;;5011362;28;20504;-67
2022/12/24 02:17:01;;;;;;;1999.90;999.90;;;10.60;99.90;;;;;;5017277;28;22091;-67
2022/12/24 02:20:06;;;;;;;1999.90;999.90;;;10.60;99.90;;;;;;5015888;28;21032;-67
2022/12/24 02:22:52;;;;;;;1999.90;999.90;;;10.60;99.90;;;;;;5013884;28;20440;-67
2022/12/24 02:25:33;;;;;;;1999.90;999.90;;;10.50;99.90;;;;;;5019364;28;21209;-67
2022/12/24 02:28:08;;;;;;;1999.90;999.90;;;10.50;99.90;;;;;;5015668;28;20960;-67
2022/12/24 02:30:41;;;;;;;1999.90;999.90;;;10.40;99.90;;;;;;5018176;28;20437;-67
2022/12/24 02:33:18;;;;;;;1999.90;999.90;;;10.40;99.90;;;;;;5015633;28;20454;-68
2022/12/24 02:35:50;;;;;;;1999.90;999.90;;;10.40;99.90;;;;;;5017605;28;20483;-66
2022/12/24 02:38:23;;;;;;;1999.90;999.90;;;10.40;99.90;;;;;;5014493;28;20441;-66
2022/12/24 02:40:55;;;;;;;1999.90;999.90;;;10.40;99.90;;;;;;5017862;28;20488;-67
2022/12/24 02:43:25;;;;;;;1999.90;999.90;;;10.40;99.90;;;;;;5019794;28;20462;-68
2022/12/24 02:45:57;;;;;;;1999.90;999.90;;;10.40;99.90;;;;;;5011944;28;20520;-68
2022/12/24 02:48:25;;;;;;;1999.90;999.90;;;10.40;99.90;;;;;;5017449;28;21302;-68
2022/12/24 02:51:02;;;;;;;1999.90;999.90;;;10.40;99.90;;;;;;5021379;28;20454;-68
2022/12/24 02:53:29;;;;;;;1999.90;999.90;;;10.40;99.90;;;;;;5016168;28;20453;-68
2022/12/24 02:56:15;;;;;;;1999.90;999.90;;;10.40;99.90;;;;;;5010537;28;20472;-68
2022/12/24 02:58:54;;;;;;;1999.90;999.90;;;10.30;99.90;;;;;;5014090;28;20961;-68
2022/12/24 03:01:31;;;;;;;1999.90;999.90;;;10.30;99.90;;;;;;5018247;28;20437;-69
2022/12/24 03:04:11;;;;;;;1999.90;999.90;;;10.30;99.90;;;;;;5021766;28;20453;-68
2022/12/24 03:06:44;;;;;;;1999.90;999.90;;;10.30;99.90;;;;;;5019388;28;20471;-68
2022/12/24 03:09:17;;;;;;;1999.90;999.90;;;10.30;99.90;;;;;;5012544;28;21006;-68
2022/12/24 03:11:50;;;;;;;1999.90;999.90;;;10.20;99.90;;;;;;5018665;28;20441;-68
2022/12/24 03:14:18;;;;;;;1999.90;999.90;;;10.20;99.90;;;;;;5018143;28;20462;-68
2022/12/24 03:16:47;;;;;;;1999.90;999.90;;;10.20;99.90;;;;;;5020411;28;20452;-68
2022/12/24 03:19:13;;;;;;;1999.90;999.90;;;10.20;99.90;;;;;;5023502;28;20485;-68
2022/12/24 03:21:41;;;;;;;1999.90;999.90;;;10.20;99.90;;;;;;5021142;28;20445;-68
2022/12/24 03:24:09;;;;;;;1999.90;999.90;;;10.30;99.90;;;;;;5021676;28;20958;-68
2022/12/24 03:26:37;;;;;;;1999.90;999.90;;;10.30;99.90;;;;;;5015646;28;20449;-68
2022/12/24 03:29:05;;;;;;;1999.90;999.90;;;10.30;99.90;;;;;;5022224;28;20448;-68
2022/12/24 03:31:41;;;;;;;1999.90;999.90;;;10.20;99.90;;;;;;5017602;28;20494;-68
2022/12/24 03:34:09;;;;;;;1999.90;999.90;;;10.30;99.90;;;;;;5020139;28;20457;-68
2022/12/24 03:36:36;;;;;;;1999.90;999.90;;;10.20;99.90;;;;;;5019075;28;20449;-68
2022/12/24 03:39:04;;;;;;;1999.90;999.90;;;10.20;99.90;;;;;;5011741;28;20445;-68
2022/12/24 03:41:30;;;;;;;1999.90;999.90;;;10.20;99.90;;;;;;5017977;28;20824;-68
2022/12/24 03:43:57;;;;;;;1999.90;999.90;;;10.20;99.90;;;;;;5019536;28;20449;-68
2022/12/24 03:46:24;;;;;;;1999.90;999.90;;;10.20;99.90;;;;;;5014039;28;20473;-68
2022/12/24 03:48:51;;;;;;;1999.90;999.90;;;10.30;99.90;;;;;;5015713;28;20449;-68
2022/12/24 03:51:21;;;;;;;1999.90;999.90;;;10.30;99.90;;;;;;5014915;28;20450;-68
2022/12/24 03:53:48;;;;;;;1999.90;999.90;;;10.30;99.90;;;;;;5018943;28;20449;-68
2022/12/24 03:56:15;;;;;;;1999.90;999.90;;;10.40;99.90;;;;;;5017100;28;20471;-68
2022/12/24 03:58:42;;;;;;;1999.90;999.90;;;10.40;99.90;;;;;;5020271;28;20455;-67
2022/12/24 04:01:09;;;;;;;1999.90;999.90;;;10.40;99.90;;;;;;5025857;28;20476;-68
2022/12/24 04:03:36;;;;;;;1999.90;999.90;;;10.40;99.90;;;;;;5017147;28;20461;-67
2022/12/24 04:06:04;;;;;;;1999.90;999.90;;;10.40;99.90;;;;;;5013146;28;20465;-68
2022/12/24 04:08:33;;;;;;;1999.90;999.90;;;10.40;99.90;;;;;;5014162;28;20563;-68
2022/12/24 04:11:00;;;;;;;1999.90;999.90;;;10.40;99.90;;;;;;5018616;28;21034;-68
2022/12/24 04:13:26;;;;;;;1999.90;999.90;;;10.40;99.90;;;;;;5014892;28;20442;-67
2022/12/24 04:15:57;;;;;;;1999.90;999.90;;;10.40;99.90;;;;;;5017464;28;21002;-67
2022/12/24 04:18:24;;;;;;;1999.90;999.90;;;10.40;99.90;;;;;;5016025;28;20446;-67
2022/12/24 04:20:51;;;;;;;1999.90;999.90;;;10.40;99.90;;;;;;5013957;28;20508;-66
2022/12/24 04:23:17;;;;;;;1999.90;999.90;;;10.30;99.90;;;;;;5016630;28;20460;-67
2022/12/24 04:25:46;;;;;;;1999.90;999.90;;;10.30;99.90;;;;;;5015731;28;20461;-68
2022/12/24 04:28:13;;;;;;;1999.90;999.90;;;10.20;99.90;;;;;;5014454;28;20446;-68
2022/12/24 04:30:40;;;;;;;1999.90;999.90;;;10.20;99.90;;;;;;5016695;28;20442;-68
2022/12/24 04:33:07;;;;;;;1999.90;999.90;;;10.20;99.90;;;;;;5016911;28;20449;-67
2022/12/24 04:35:34;;;;;;;1999.90;999.90;;;10.10;99.90;;;;;;5016014;28;20474;-67
2022/12/24 04:38:01;;;;;;;1999.90;999.90;;;10.00;99.90;;;;;;5013207;28;20450;-67
2022/12/24 04:40:27;;;;;;;1999.90;999.90;;;10.00;99.90;;;;;;5016246;28;20489;-67
2022/12/24 04:42:55;;;;;;;1999.90;999.90;;;10.00;99.90;;;;;;5017272;28;20453;-67
2022/12/24 04:45:22;;;;;;;1999.90;999.90;;;9.90;99.90;;;;;;5018242;28;20477;-68
2022/12/24 04:47:49;;;;;;;1999.90;999.90;;;10.00;99.90;;;;;;5019266;28;20469;-67
2022/12/24 04:50:16;;;;;;;1999.90;999.90;;;10.00;99.90;;;;;;5015376;28;20473;-68
2022/12/24 04:52:42;;;;;;;1999.90;999.90;;;10.00;99.90;;;;;;5011078;28;20913;-68
2022/12/24 04:55:10;;;;;;;1999.90;999.90;;;10.00;99.90;;;;;;5018298;28;20740;-68
2022/12/24 04:57:37;;;;;;;1999.90;999.90;;;9.90;99.90;;;;;;5017019;28;20454;-67
2022/12/24 05:00:07;;;;;;;1999.90;999.90;;;9.90;99.90;;;;;;5016443;28;20482;-68
2022/12/24 05:02:34;;;;;;;1999.90;999.90;;;9.90;99.90;;;;;;5019918;28;20975;-68
2022/12/24 05:05:00;;;;;;;1999.90;999.90;;;10.00;99.90;;;;;;5015694;28;21017;-68
2022/12/24 05:07:27;;;;;;;1999.90;999.90;;;9.90;99.90;;;;;;5015329;28;20534;-68
2022/12/24 05:09:54;;;;;;;1999.90;999.90;;;9.90;99.90;;;;;;5018296;28;21181;-68
2022/12/24 05:12:21;;;;;;;1999.90;999.90;;;9.90;99.90;;;;;;5012081;28;20452;-67
2022/12/24 05:14:47;;;;;;;1999.90;999.90;;;9.80;99.90;;;;;;5014677;28;20476;-68
2022/12/24 05:17:15;;;;;;;1999.90;999.90;;;9.80;99.90;;;;;;5014393;28;20453;-68
2022/12/24 05:19:42;;;;;;;1999.90;999.90;;;9.60;99.90;;;;;;5009014;28;20495;-67
2022/12/24 05:27:37;;;;;;;1999.90;999.90;;;9.40;99.90;;;;;;5021209;28;20436;-68
2022/12/24 05:30:05;;;;;;;1999.90;999.90;;;9.40;99.90;;;;;;5014697;28;20441;-68
2022/12/24 05:32:33;;;;;;;1999.90;999.90;;;9.30;99.90;;;;;;5017223;28;20453;-68
2022/12/24 05:35:00;;;;;;;1999.90;999.90;;;9.20;99.90;;;;;;5017240;28;21029;-68
2022/12/24 05:37:27;;;;;;;1999.90;999.90;;;9.20;99.90;;;;;;5014013;28;21015;-68
2022/12/24 05:39:54;;;;;;;1999.90;999.90;;;9.10;99.90;;;;;;5011098;28;20480;-68
2022/12/24 05:42:21;;;;;;;1999.90;999.90;;;9.10;99.90;;;;;;5016379;28;20458;-68
2022/12/24 05:44:47;;;;;;;1999.90;999.90;;;9.10;99.90;;;;;;5015823;28;20483;-68
2022/12/24 05:47:14;;;;;;;1999.90;999.90;;;9.00;99.90;;;;;;5019797;28;20441;-68
2022/12/24 05:49:42;;;;;;;1999.90;999.90;;;9.00;99.90;;;;;;5020165;28;20449;-68
2022/12/24 05:52:09;;;;;;;1999.90;999.90;;;9.00;99.90;;;;;;5016458;28;20457;-68
2022/12/24 05:54:35;;;;;;;1999.90;999.90;;;8.90;99.90;;;;;;5019282;28;20840;-68
2022/12/24 05:57:02;;;;;;;1999.90;999.90;;;8.90;99.90;;;;;;5017819;28;20457;-68
2022/12/24 05:59:29;;;;;;;1999.90;999.90;;;8.90;99.90;;;;;;5016444;28;20445;-68
2022/12/24 06:01:56;;;;;;;1999.90;999.90;;;8.90;99.90;;;;;;5018481;28;20564;-68
2022/12/24 06:04:22;;;;;;;1999.90;999.90;;;8.80;99.90;;;;;;5021527;28;20476;-68
2022/12/24 06:06:51;;;;;;;1999.90;999.90;;;8.70;99.90;;;;;;5016446;28;20445;-68
2022/12/24 06:09:17;;;;;;;1999.90;999.90;;;8.70;99.90;;;;;;5020696;28;21226;-67
2022/12/24 06:11:44;;;;;;;1999.90;999.90;;;8.60;99.90;;;;;;5017778;28;20446;-67
2022/12/24 06:14:11;;;;;;;1999.90;999.90;;;8.60;99.90;;;;;;5020050;28;20441;-67
2022/12/24 06:16:38;;;;;;;1999.90;999.90;;;8.60;99.90;;;;;;5021346;28;20449;-66
2022/12/24 06:19:04;;;;;;;1999.90;999.90;;;8.60;99.90;;;;;;5015906;28;20454;-67
2022/12/24 06:21:31;;;;;;;1999.90;999.90;;;8.60;99.90;;;;;;5021012;28;20488;-67
2022/12/24 06:24:00;;;;;;;1999.90;999.90;;;8.60;99.90;;;;;;5018105;28;20971;-68
2022/12/24 06:26:26;;;;;;;1999.90;999.90;;;8.50;99.90;;;;;;5016813;28;20468;-69
2022/12/24 06:28:53;;;;;;;1999.90;999.90;;;8.50;99.90;;;;;;5015386;28;20450;-67
2022/12/24 06:31:22;;;;;;;1999.90;999.90;;;8.60;99.90;;;;;;5021199;28;20461;-68
2022/12/24 06:33:49;;;;;;;1999.90;999.90;;;8.60;99.90;;;;;;5017872;28;20979;-68
2022/12/24 06:36:18;;;;;;;1999.90;999.90;;;8.70;99.90;;;;;;5014960;28;20488;-68
2022/12/24 06:38:45;;;;;;;1999.90;999.90;;;8.70;99.90;;;;;;5009925;28;20441;-68
2022/12/24 06:41:13;;;;;;;1999.90;999.90;;;8.60;99.90;;;;;;5018668;28;20557;-68
2022/12/24 06:43:44;;;;;;;1999.90;999.90;;;8.60;99.90;;;;;;5027400;28;20453;-68
2022/12/24 06:46:10;;;;;;;1999.90;999.90;;;8.50;99.90;;;;;;5016427;28;20470;-69
2022/12/24 06:48:37;;;;;;;1999.90;999.90;;;8.50;99.90;;;;;;5018391;28;20445;-68
2022/12/24 06:51:04;;;;;;;1999.90;999.90;;;8.50;99.90;;;;;;5022453;28;20441;-66
2022/12/24 06:53:32;;;;;;;1999.90;999.90;;;8.50;99.90;;;;;;5011567;28;20446;-68
2022/12/24 06:56:02;;;;;;;1999.90;999.90;;;8.60;99.90;;;;;;5024188;28;21022;-67
2022/12/24 06:58:30;;;;;;;1999.90;999.90;;;8.60;99.90;;;;;;5017476;28;20453;-67
2022/12/24 07:00:57;;;;;;;1999.90;999.90;;;8.60;99.90;;;;;;5015131;28;20580;-69
2022/12/24 07:03:23;;;;;;;1999.90;999.90;;;8.70;99.90;;;;;;5013987;28;20453;-69
2022/12/24 07:05:50;;;;;;;1999.90;999.90;;;8.80;99.90;;;;;;5024962;28;20477;-67
2022/12/24 07:08:17;;;;;;;1999.90;999.90;;;8.80;99.90;;;;;;5019689;28;20456;-67
2022/12/24 07:10:44;;;;;;;1999.90;999.90;;;8.90;99.90;;;;;;5016887;28;20445;-68
2022/12/24 07:13:10;;;;;;;1999.90;999.90;;;9.00;99.90;;;;;;5019813;28;20464;-67
2022/12/24 07:15:38;;;;;;;1999.90;999.90;;;8.90;99.90;;;;;;5017237;28;20469;-67
2022/12/24 07:18:05;;;;;;;1999.90;999.90;;;8.80;99.90;;;;;;5016644;28;20450;-68
2022/12/24 07:20:32;;;;;;;1999.90;999.90;;;8.80;99.90;;;;;;5017183;28;20483;-68
2022/12/24 07:22:59;;;;;;;1999.90;999.90;;;8.80;99.90;;;;;;5019063;28;20807;-67
2022/12/24 07:25:26;;;;;;;1999.90;999.90;;;8.80;99.90;;;;;;5017360;28;20470;-67
2022/12/24 07:27:52;;;;;;;1999.90;999.90;;;8.90;99.90;;;;;;5010115;28;20449;-68
2022/12/24 07:30:19;;;;;;;1999.90;999.90;;;8.90;99.90;;;;;;5018893;28;20434;-67
2022/12/24 07:32:47;;;;;;;1999.90;999.90;;;8.90;99.90;;;;;;5015511;28;20453;-68
2022/12/24 07:35:14;;;;;;;1999.90;999.90;;;8.90;99.90;;;;;;5012935;28;20998;-67
2022/12/24 07:37:41;;;;;;;1999.90;999.90;;;8.90;99.90;;;;;;5015799;28;20449;-67
2022/12/24 07:40:09;;;;;;;1999.90;999.90;;;8.90;99.90;;;;;;5016329;28;20452;-68
2022/12/24 07:42:36;;;;;;;1999.90;999.90;;;8.90;99.90;;;;;;5019199;28;20452;-68
2022/12/24 07:45:03;;;;;;;1999.90;999.90;;;9.00;99.90;;;;;;5012779;28;20518;-68
2022/12/24 07:47:29;;;;;;;1999.90;999.90;;;9.00;99.90;;;;;;5017539;28;20475;-68
2022/12/24 07:49:57;;;;;;;1999.90;999.90;;;9.00;99.90;;;;;;5019418;28;20442;-68
2022/12/24 07:52:24;;;;;;;1999.90;999.90;;;9.00;99.90;;;;;;5014953;28;20447;-68
2022/12/24 07:54:51;;;;;;;1999.90;999.90;;;9.00;99.90;;;;;;5017123;28;20477;-68
2022/12/24 07:57:18;;;;;;;1999.90;999.90;;;9.10;99.90;;;;;;5021712;28;20475;-68
2022/12/24 07:59:44;;;;;;;1999.90;999.90;;;9.20;99.90;;;;;;5015566;28;20907;-68
2022/12/24 08:02:11;;;;;;;1999.90;999.90;;;9.20;99.90;;;;;;5021218;28;21038;-68
2022/12/24 08:04:38;;;;;;;1999.90;999.90;;;9.20;99.90;;;;;;5015114;28;20465;-67
2022/12/24 08:07:07;;;;;;;1999.90;999.90;;;9.20;99.90;;;;;;5019522;28;20446;-68
2022/12/24 08:09:35;;;;;;;1999.90;999.90;;;9.20;99.90;;;;;;5017276;28;20453;-68
2022/12/24 08:12:02;;;;;;;1999.90;999.90;;;9.20;99.90;;;;;;5005724;28;20437;-68
2022/12/24 08:14:29;;;;;;;1999.90;999.90;;;9.20;99.90;;;;;;5014636;28;20523;-67
2022/12/24 08:16:55;;;;;;;1999.90;999.90;;;9.20;99.90;;;;;;5017216;28;20451;-68
2022/12/24 08:19:22;;;;;;;1999.90;999.90;;;9.20;99.90;;;;;;5013071;28;21071;-68
2022/12/24 08:21:49;;;;;;;1999.90;999.90;;;9.20;99.90;;;;;;5018626;28;20486;-68
2022/12/24 08:24:17;;;;;;;1999.90;999.90;;;9.20;99.90;;;;;;5015530;28;20471;-68
2022/12/24 08:26:44;;;;;;;1999.90;999.90;;;9.20;99.90;;;;;;5016300;28;20449;-68
2022/12/24 08:29:10;;;;;;;1999.90;999.90;;;9.20;99.90;;;;;;5012402;28;20446;-68
2022/12/24 08:31:37;;;;;;;1999.90;999.90;;;9.30;99.90;;;;;;5020749;28;20446;-68
2022/12/24 08:34:06;;;;;;;1999.90;999.90;;;9.30;99.90;;;;;;5016358;28;20943;-68
2022/12/24 08:36:33;;;;;;;1999.90;999.90;;;9.40;99.90;;;;;;5014830;28;20495;-68
2022/12/24 08:39:02;;;;;;;1999.90;999.90;;;9.50;99.90;;;;;;5011683;28;20535;-68
2022/12/24 08:41:33;;;;;;;1999.90;999.90;;;9.50;99.90;;;;;;5014560;28;20840;-68
2022/12/24 08:44:00;;;;;;;1999.90;999.90;;;9.50;99.90;;;;;;5013844;28;21113;-68
2022/12/24 08:46:26;;;;;;;1999.90;999.90;;;9.50;99.90;;;;;;5012798;28;20484;-68
2022/12/24 08:48:53;;;;;;;1999.90;999.90;;;9.50;99.90;;;;;;5019555;28;20456;-69
2022/12/24 08:51:20;;;;;;;1999.90;999.90;;;9.50;99.90;;;;;;5007164;28;20456;-68
2022/12/24 08:53:47;;;;;;;1999.90;999.90;;;9.40;99.90;;;;;;5012875;28;20449;-69
2022/12/24 08:56:14;;;;;;;1999.90;999.90;;;9.40;99.90;;;;;;5023707;28;20473;-68
2022/12/24 08:58:42;;;;;;;1999.90;999.90;;;9.40;99.90;;;;;;5017443;28;20448;-68
2022/12/24 09:01:13;;;;;;;1999.90;999.90;;;9.50;99.90;;;;;;5019767;28;20514;-69
2022/12/24 09:03:40;;;;;;;1999.90;999.90;;;9.50;99.90;;;;;;5009036;28;20458;-68
2022/12/24 09:06:08;;;;;;;1999.90;999.90;;;9.50;99.90;;;;;;5009945;28;20475;-75
2022/12/24 09:08:35;;;;;;;1999.90;999.90;;;9.50;99.90;;;;;;5012554;28;20457;-69
2022/12/24 09:11:06;;;;;;;1999.90;999.90;;;9.50;99.90;;;;;;5013557;28;20469;-70
2022/12/24 09:13:33;;;;;;;1999.90;999.90;;;9.60;99.90;;;;;;5009754;28;20457;-69
2022/12/24 09:16:01;;;;;;;1999.90;999.90;;;9.70;99.90;;;;;;5011627;28;20480;-69
2022/12/24 09:18:28;;;;;;;1999.90;999.90;;;9.70;99.90;;;;;;5016787;28;20445;-70
2022/12/24 09:21:00;;;;;;;1999.90;999.90;;;9.80;99.90;;;;;;5005975;28;20492;-68
2022/12/24 09:23:27;;;;;;;1999.90;999.90;;;9.80;99.90;;;;;;5005043;28;20547;-68
2022/12/24 09:25:54;;;;;;;1999.90;999.90;;;9.80;99.90;;;;;;5001710;28;20477;-69
2022/12/24 09:28:21;;;;;;;1999.90;999.90;;;9.90;99.90;;;;;;5002564;28;20460;-69
2022/12/24 09:30:56;;;;;;;1999.90;999.90;;;9.90;99.90;;;;;;5003192;28;20461;-69
2022/12/24 09:33:25;;;;;;;1999.90;999.90;;;10.00;99.90;;;;;;5002180;28;20503;-69
2022/12/24 09:35:51;;;;;;;1999.90;999.90;;;10.10;99.90;;;;;;5003192;28;20474;-69
2022/12/24 09:38:18;;;;;;;1999.90;999.90;;;10.30;99.90;;;;;;5001411;28;20481;-70
2022/12/24 09:40:46;;;;;;;1999.90;999.90;;;10.40;99.90;;;;;;5003149;28;20460;-70
2022/12/24 09:43:16;;;;;;;1999.90;999.90;;;10.60;99.90;;;;;;5010280;28;20455;-68
2022/12/24 09:45:49;;;;;;;1999.90;999.90;;;10.60;99.90;;;;;;5013064;28;20469;-69
2022/12/24 09:48:19;;;;;;;1999.90;999.90;;;10.70;99.90;;;;;;5011443;28;20442;-67
2022/12/24 09:50:53;;;;;;;1999.90;999.90;;;10.80;99.90;;;;;;5011276;28;20445;-69
2022/12/24 09:53:23;;;;;;;1999.90;999.90;;;10.90;99.90;;;;;;5023922;28;20452;-67
2022/12/24 09:55:53;;;;;;;1999.90;999.90;;;10.90;99.90;;;;;;5023125;28;20994;-68
2022/12/24 09:58:24;;;;;;;1999.90;999.90;;;10.90;99.90;;;;;;5024514;28;20472;-68
2022/12/24 10:00:53;;;;;;;1999.90;999.90;;;11.00;99.90;;;;;;5013957;28;20441;-70
2022/12/24 10:03:20;;;;;;;1999.90;999.90;;;11.10;99.90;;;;;;5017577;28;20461;-69
2022/12/24 10:05:58;;;;;;;1999.90;999.90;;;11.10;99.90;;;;;;5016749;28;20995;-69
2022/12/24 10:08:35;;;;;;;1999.90;999.90;;;11.30;99.90;;;;;;5008877;28;20484;-67
2022/12/24 10:11:11;;;;;;;1999.90;999.90;;;11.60;99.90;;;;;;5020722;28;20456;-69
2022/12/24 10:13:50;;;;;;;1999.90;999.90;;;11.70;99.90;;;;;;5024775;28;20506;-68
2022/12/24 10:16:24;;;;;;;1999.90;999.90;;;11.70;99.90;;;;;;5015577;28;20470;-68
2022/12/24 10:19:00;;;;;;;1999.90;999.90;;;11.60;99.90;;;;;;5007148;28;20462;-72
2022/12/24 10:21:39;;;;;;;1999.90;999.90;;;11.50;99.90;;;;;;5005359;28;20542;-69
2022/12/24 10:24:11;;;;;;;1999.90;999.90;;;11.40;99.90;;;;;;5005180;28;20453;-69
2022/12/24 10:26:45;;;;;;;1999.90;999.90;;;11.30;99.90;;;;;;5001692;28;20456;-72
2022/12/24 10:29:16;;;;;;;1999.90;999.90;;;11.20;99.90;;;;;;5006638;28;20457;-68
2022/12/24 10:31:51;;;;;;;1999.90;999.90;;;11.20;99.90;;;;;;5005060;28;20454;-68
2022/12/24 10:34:22;;;;;;;1999.90;999.90;;;11.30;99.90;;;;;;5010304;28;20464;-68
2022/12/24 10:36:51;;;;;;;1999.90;999.90;;;11.40;99.90;;;;;;5006629;28;20990;-68
2022/12/24 10:39:20;;;;;;;1999.90;999.90;;;11.50;99.90;;;;;;5021391;28;20450;-68
2022/12/24 10:41:49;;;;;;;1999.90;999.90;;;11.60;99.90;;;;;;5017069;28;20477;-68
2022/12/24 10:44:19;;;;;;;1999.90;999.90;;;11.80;99.90;;;;;;5016411;28;20643;-68
2022/12/24 10:46:46;;;;;;;1999.90;999.90;;;12.00;99.90;;;;;;5010773;28;20472;-68
2022/12/24 10:49:15;;;;;;;1999.90;999.90;;;12.10;99.90;;;;;;5018870;28;20453;-69
2022/12/24 10:51:47;;;;;;;1999.90;999.90;;;12.20;99.90;;;;;;5017560;28;20442;-68
2022/12/24 10:54:18;;;;;;;1999.90;999.90;;;12.40;99.90;;;;;;5011417;28;21070;-69
2022/12/24 10:56:49;;;;;;;1999.90;999.90;;;12.40;99.90;;;;;;5016958;28;21041;-69
2022/12/24 10:59:28;;;;;;;1999.90;999.90;;;12.40;99.90;;;;;;5012180;28;20454;-68
2022/12/24 11:01:56;;;;;;;1999.90;999.90;;;12.40;99.90;;;;;;5009264;28;20485;-69
2022/12/24 11:04:25;;;;;;;1999.90;999.90;;;12.40;99.90;;;;;;5008418;28;20457;-66
2022/12/24 11:06:57;;;;;;;1999.90;999.90;;;12.30;99.90;;;;;;5004174;28;20518;-68
2022/12/24 11:09:28;;;;;;;1999.90;999.90;;;12.30;99.90;;;;;;4995854;28;20456;-67
2022/12/24 11:11:56;;;;;;;1999.90;999.90;;;12.30;99.90;;;;;;5000494;28;20454;-66
2022/12/24 11:14:24;;;;;;;1999.90;999.90;;;12.20;99.90;;;;;;5002684;28;20877;-67
2022/12/24 11:16:53;;;;;;;1999.90;999.90;;;12.30;99.90;;;;;;5000535;28;20461;-66
2022/12/24 11:19:28;;;;;;;1999.90;999.90;;;12.30;99.90;;;;;;4999576;28;20465;-67
2022/12/24 11:22:00;;;;;;;1999.90;999.90;;;12.40;99.90;;;;;;4998476;28;20569;-70
2022/12/24 11:24:31;;;;;;;1999.90;999.90;;;12.40;99.90;;;;;;5000205;28;21267;-69
2022/12/24 11:27:24;;;;;;;1999.90;999.90;;;12.50;99.90;;;;;;5000767;28;20449;-70
2022/12/24 11:29:51;;;;;;;1999.90;999.90;;;12.50;99.90;;;;;;5001319;28;20449;-70
2022/12/24 11:32:21;;;;;;;1999.90;999.90;;;12.50;99.90;;;;;;5004173;28;20477;-69
2022/12/24 11:34:48;;;;;;;1999.90;999.90;;;12.50;99.90;;;;;;5002209;28;20499;-69
2022/12/24 11:37:17;;;;;;;1999.90;999.90;;;12.40;99.90;;;;;;5001473;28;20445;-70
2022/12/24 11:39:48;;;;;;;1999.90;999.90;;;12.40;99.90;;;;;;5002605;28;20454;-69
2022/12/24 11:42:32;;;;;;;1999.90;999.90;;;12.30;99.90;;;;;;5001367;28;20482;-70
2022/12/24 11:45:03;;;;;;;1999.90;999.90;;;12.20;99.90;;;;;;5005084;28;20484;-71
2022/12/24 11:47:33;;;;;;;1999.90;999.90;;;12.20;99.90;;;;;;5001128;28;20462;-70
2022/12/24 11:50:27;;;;;;;1999.90;999.90;;;12.20;99.90;;;;;;5007619;28;20454;-69
2022/12/24 11:53:00;;;;;;;1999.90;999.90;;;12.00;99.90;;;;;;5007253;28;20443;-69
2022/12/24 11:55:39;;;;;;;1999.90;999.90;;;11.90;99.90;;;;;;5002467;28;20903;-69
2022/12/24 11:58:18;;;;;;;1999.90;999.90;;;11.70;99.90;;;;;;5000961;28;20521;-69
2022/12/24 12:00:47;;;;;;;1999.90;999.90;;;11.60;99.90;;;;;;5005980;28;20461;-69
2022/12/24 12:03:30;;;;;;;1999.90;999.90;;;11.50;99.90;;;;;;5006434;28;20482;-70
2022/12/24 12:06:00;;;;;;;1999.90;999.90;;;11.50;99.90;;;;;;5006904;28;20485;-67
2022/12/24 12:08:29;;;;;;;1999.90;999.90;;;11.40;99.90;;;;;;5005230;28;20442;-69
2022/12/24 12:10:59;;;;;;;1999.90;999.90;;;11.50;99.90;;;;;;5007182;28;20559;-70
2022/12/24 12:13:32;;;;;;;1999.90;999.90;;;11.60;99.90;;;;;;5010709;28;20519;-69
2022/12/24 12:16:07;;;;;;;1999.90;999.90;;;11.70;99.90;;;;;;5006201;28;20469;-70
2022/12/24 12:18:38;;;;;;;1999.90;999.90;;;11.80;99.90;;;;;;5009543;28;20449;-70
2022/12/24 12:21:09;;;;;;;1999.90;999.90;;;12.00;99.90;;;;;;5005876;28;20465;-68
2022/12/24 12:23:42;;;;;;;1999.90;999.90;;;12.10;99.90;;;;;;5006064;28;20505;-71